^^
Meteo Knjazevac Station Historical Data
Daily Summary for September 22, 2021 Units:  Metric    English   Both
Daily Weekly Monthly Yearly Custom
  High: Low: Average:
Temperature: -6.7 °C -8.9 °C -7.8 °C
Dew Point: -7.7 °C -9.8 °C -8.8 °C
Humidity: 94% 91% 93%
Wind Speed: 4.8km/h 0km/h 2.6km/h
Wind Gust: 8km/h - -
Wind- - WNW
Pressure: 1028 hPa 1027.3 hPa -
Precipitation: 0 mm    
Historical Graphs
 
 
Tabular Data for September 22, 2021
Time Temperature Dew Point Pressure Wind Wind Speed Wind Gust Humidity Rainfall Rate (Hourly) solar Conditions
00:00 -6.7 °C -7.9 °C 1028 hPa West 4.8 km/h 6.4 km/h 91% 0 mm 0 W/m2
00:10 -6.8 °C -8 °C 1027.7 hPa WNW 3.2 km/h 8 km/h 91% 0 mm 0 W/m2
00:20 -6.7 °C -7.7 °C 1027.7 hPa WNW 3.2 km/h 4.8 km/h 93% 0 mm 0 W/m2
00:30 -6.8 °C -8 °C 1027.7 hPa WNW 1.6 km/h 4.8 km/h 91% 0 mm 0 W/m2
00:40 -6.9 °C -8.1 °C 1027.7 hPa WNW 3.2 km/h 3.2 km/h 91% 0 mm 0 W/m2
00:50 -7.1 °C -8.3 °C 1027.7 hPa West 1.6 km/h 4.8 km/h 91% 0 mm 0 W/m2
01:00 -7.2 °C -8.4 °C 1027.7 hPa West 3.2 km/h 6.4 km/h 91% 0 mm 0 W/m2
01:10 -7.4 °C -8.6 °C 1027.7 hPa WNW 3.2 km/h 4.8 km/h 91% 0 mm 0 W/m2
01:20 -7.5 °C -8.6 °C 1027.7 hPa WNW 3.2 km/h 4.8 km/h 92% 0 mm 0 W/m2
01:30 -7.5 °C -8.7 °C 1027.7 hPa WNW 3.2 km/h 4.8 km/h 91% 0 mm 0 W/m2
01:40 -7.7 °C -8.6 °C 1027.7 hPa WNW 3.2 km/h 4.8 km/h 93% 0 mm 0 W/m2
01:50 -7.6 °C -8.6 °C 1027.7 hPa WNW 3.2 km/h 6.4 km/h 93% 0 mm 0 W/m2
02:00 -7.5 °C -8.3 °C 1027.7 hPa NW 3.2 km/h 4.8 km/h 94% 0 mm 0 W/m2
02:10 -7.3 °C -8.1 °C 1027.7 hPa NNW 1.6 km/h 4.8 km/h 94% 0 mm 0 W/m2
02:20 -7.3 °C -8.1 °C 1027.7 hPa NNW 1.6 km/h 3.2 km/h 94% 0 mm 0 W/m2
02:30 -7.3 °C -8.1 °C 1027.7 hPa North 1.6 km/h 3.2 km/h 94% 0 mm 0 W/m2
02:40 -7.5 °C -8.4 °C 1027.7 hPa Calm   3.2 km/h 93% 0 mm 0 W/m2
02:50 -7.5 °C -8.4 °C 1027.7 hPa NNW 1.6 km/h 4.8 km/h 93% 0 mm 0 W/m2
03:00 -7.8 °C -9 °C 1027.3 hPa WNW 1.6 km/h 3.2 km/h 91% 0 mm 0 W/m2
03:10 -7.9 °C -9.2 °C 1027.3 hPa WNW 3.2 km/h 3.2 km/h 91% 0 mm 0 W/m2
03:20 -8.1 °C -9.3 °C 1027.3 hPa WNW 3.2 km/h 6.4 km/h 91% 0 mm 0 W/m2
03:30 -8.2 °C -9.1 °C 1027.3 hPa WNW 3.2 km/h 8 km/h 93% 0 mm 0 W/m2
03:40 -8 °C -8.8 °C 1027.3 hPa WNW 3.2 km/h 8 km/h 94% 0 mm 0 W/m2
03:50 -8.1 °C -9.1 °C 1027.3 hPa WNW 3.2 km/h 4.8 km/h 93% 0 mm 0 W/m2
04:00 -8.2 °C -9.1 °C 1027.3 hPa Calm   4.8 km/h 93% 0 mm 0 W/m2
04:10 -8.3 °C -9.2 °C 1027.3 hPa West 3.2 km/h 4.8 km/h 93% 0 mm 0 W/m2
04:20 -8.4 °C -9.3 °C 1027.3 hPa West 1.6 km/h 4.8 km/h 93% 0 mm 0 W/m2
04:30 -8.6 °C -9.5 °C 1027.3 hPa WNW 3.2 km/h 4.8 km/h 93% 0 mm 0 W/m2
04:40 -8.6 °C -9.5 °C 1027.3 hPa WNW 3.2 km/h 6.4 km/h 93% 0 mm 0 W/m2
04:50 -8.6 °C -9.5 °C 1027.3 hPa WNW 1.6 km/h 4.8 km/h 93% 0 mm 0 W/m2
05:00 -8.7 °C -9.6 °C 1027.3 hPa WNW 3.2 km/h 4.8 km/h 93% 0 mm 0 W/m2
05:10 -8.7 °C -9.4 °C 1027.3 hPa West 1.6 km/h 4.8 km/h 94% 0 mm 0 W/m2
05:20 -8.8 °C -9.7 °C 1027.3 hPa WNW 3.2 km/h 4.8 km/h 93% 0 mm 0 W/m2
05:30 -8.8 °C -9.7 °C 1027.7 hPa WNW 3.2 km/h 6.4 km/h 93% 0 mm 0 W/m2
05:40 -8.8 °C -9.7 °C 1027.7 hPa WNW 1.6 km/h 3.2 km/h 93% 0 mm 0 W/m2
05:50 -8.9 °C -9.8 °C 1027.7 hPa WNW 1.6 km/h 4.8 km/h 93% 0 mm 0 W/m2
Knjazevac, Serbia
Compliments of Weather Underground - 2 mb